createdAt,value
2024-02-13T00:02:25.357Z,11.94
2024-02-13T00:07:25.948Z,11.80
2024-02-13T00:12:25.003Z,11.74
2024-02-13T00:17:24.678Z,11.63
2024-02-13T00:22:25.571Z,11.39
2024-02-13T00:27:24.504Z,11.58
2024-02-13T00:32:23.473Z,11.48
2024-02-13T00:37:24.573Z,11.53
2024-02-13T00:42:25.059Z,11.63
2024-02-13T00:47:23.998Z,11.54
2024-02-13T00:52:22.864Z,11.48
2024-02-13T00:57:21.895Z,11.67
2024-02-13T01:02:24.050Z,11.61
2024-02-13T01:07:22.934Z,11.71
2024-02-13T01:12:21.833Z,11.63
2024-02-13T01:17:22.224Z,11.68
2024-02-13T01:22:21.157Z,11.75
2024-02-13T01:27:21.377Z,11.52
2024-02-13T01:32:21.689Z,11.47
2024-02-13T01:37:21.273Z,11.40
2024-02-13T01:42:20.147Z,11.32
2024-02-13T01:47:19.267Z,11.13
2024-02-13T01:52:20.304Z,11.23
2024-02-13T01:57:20.194Z,10.91
2024-02-13T02:02:19.633Z,11.02
2024-02-13T02:07:20.900Z,10.84
2024-02-13T02:12:19.811Z,10.62
2024-02-13T02:17:18.727Z,10.32
2024-02-13T02:22:17.611Z,10.27
2024-02-13T02:27:19.055Z,10.14
2024-02-13T02:32:18.127Z,10.30
2024-02-13T02:37:17.118Z,10.04
2024-02-13T02:42:19.255Z,10.05
2024-02-13T02:47:19.479Z,9.97
2024-02-13T02:52:19.046Z,9.71
2024-02-13T02:57:19.249Z,9.82
2024-02-13T03:02:18.024Z,9.63
2024-02-13T03:07:16.994Z,9.47
2024-02-13T03:12:15.828Z,9.55
2024-02-13T03:17:16.111Z,9.77
2024-02-13T03:22:15.256Z,9.53
2024-02-13T03:27:14.137Z,9.49
2024-02-13T03:32:13.031Z,9.57
2024-02-13T03:37:13.283Z,9.58
2024-02-13T03:42:12.093Z,9.65
2024-02-13T03:47:10.995Z,9.59
2024-02-13T03:52:10.999Z,9.45
2024-02-13T03:57:12.275Z,9.55
2024-02-13T04:02:11.189Z,9.46
2024-02-13T04:07:10.123Z,9.35
2024-02-13T04:12:11.416Z,9.38
2024-02-13T04:17:12.198Z,9.42
2024-02-13T04:22:11.436Z,9.61
2024-02-13T04:27:11.805Z,9.57
2024-02-13T04:32:10.720Z,9.33
2024-02-13T04:37:10.383Z,9.39
2024-02-13T04:42:11.593Z,9.41
2024-02-13T04:47:12.302Z,9.47
2024-02-13T04:52:12.577Z,9.23
2024-02-13T04:57:11.501Z,9.35
2024-02-13T05:02:12.736Z,9.45
2024-02-13T05:07:24.875Z,9.35
2024-02-13T05:12:23.800Z,9.30
2024-02-13T05:17:25.229Z,9.34
2024-02-13T05:22:24.147Z,9.35
2024-02-13T05:27:23.077Z,9.40
2024-02-13T05:32:26.805Z,9.42
2024-02-13T05:37:25.810Z,9.37
2024-02-13T05:42:24.758Z,9.23
2024-02-13T05:47:24.853Z,9.17
2024-02-13T05:52:25.105Z,9.09
2024-02-13T05:57:24.015Z,9.14
2024-02-13T06:02:23.620Z,9.18
2024-02-13T06:07:22.900Z,9.40
2024-02-13T06:12:23.902Z,9.29
2024-02-13T06:17:23.568Z,9.19
2024-02-13T06:22:22.573Z,9.31
2024-02-13T06:27:22.859Z,9.01
2024-02-13T06:32:22.054Z,9.28
2024-02-13T06:37:21.046Z,9.25
2024-02-13T06:42:20.364Z,9.55
2024-02-13T06:47:20.787Z,9.29
2024-02-13T06:52:23.312Z,9.46
2024-02-13T07:08:17.805Z,9.54
2024-02-13T07:13:17.418Z,9.65
2024-02-13T07:18:20.830Z,9.57
2024-02-13T07:23:38.006Z,9.77
2024-02-13T07:28:43.349Z,9.75
2024-02-13T07:33:49.467Z,9.64
2024-02-13T07:38:54.115Z,9.77
2024-02-13T07:43:52.995Z,9.85
2024-02-13T07:49:16.597Z,9.93
2024-02-13T07:54:16.479Z,10.01
2024-02-13T07:59:17.828Z,10.07
2024-02-13T08:04:19.894Z,10.24
2024-02-13T08:09:34.602Z,10.38
2024-02-13T08:14:34.293Z,10.83
2024-02-13T08:19:34.874Z,10.84
2024-02-13T08:24:37.622Z,10.79
2024-02-13T08:29:47.048Z,10.91
2024-02-13T08:35:02.708Z,11.13
2024-02-13T08:40:02.248Z,11.02
2024-02-13T08:45:05.981Z,11.14
2024-02-13T08:50:16.819Z,11.19
2024-02-13T08:55:23.416Z,11.38
2024-02-13T09:00:24.106Z,11.34
2024-02-13T09:05:24.335Z,11.37
2024-02-13T09:10:26.033Z,11.68
2024-02-13T09:15:26.729Z,11.82
2024-02-13T09:20:30.150Z,12.01
2024-02-13T09:26:00.318Z,12.00
2024-02-13T09:31:04.975Z,11.93
2024-02-13T09:41:34.870Z,12.55
2024-02-13T09:46:33.822Z,12.62
2024-02-13T09:51:35.295Z,12.70
2024-02-13T09:56:35.093Z,12.80
2024-02-13T10:01:34.222Z,12.61
2024-02-13T10:06:34.594Z,12.32
2024-02-13T10:11:36.412Z,12.49
2024-02-13T10:16:35.713Z,12.58
2024-02-13T10:21:37.472Z,12.28
2024-02-13T10:26:48.307Z,12.20
2024-02-13T10:31:47.091Z,12.40
2024-02-13T10:36:47.425Z,12.64
2024-02-13T10:42:03.495Z,13.01
2024-02-13T10:47:04.666Z,12.71
2024-02-13T10:52:08.333Z,12.84
2024-02-13T10:57:27.679Z,13.14
2024-02-13T11:02:31.225Z,12.78
2024-02-13T11:07:32.140Z,12.71
2024-02-13T11:12:39.443Z,12.72
2024-02-13T11:17:46.341Z,12.81
2024-02-13T11:22:58.786Z,12.94
2024-02-13T11:28:05.367Z,13.01
2024-02-13T11:33:09.633Z,13.10
2024-02-13T11:38:17.759Z,13.02
2024-02-13T11:43:36.408Z,12.87
2024-02-13T11:48:48.314Z,12.84
2024-02-13T11:53:54.289Z,12.85
2024-02-13T11:59:06.988Z,12.82
2024-02-13T12:04:09.517Z,12.81
2024-02-13T12:09:10.726Z,12.86
2024-02-13T12:14:24.863Z,12.73
2024-02-13T12:19:27.150Z,12.85
2024-02-13T12:24:28.179Z,12.79
2024-02-13T12:29:28.074Z,12.38
2024-02-13T12:34:34.937Z,12.45
2024-02-13T12:39:37.919Z,12.43
2024-02-13T12:44:37.759Z,12.40
2024-02-13T12:49:44.611Z,12.63
2024-02-13T12:54:47.590Z,12.56
2024-02-13T13:00:01.405Z,12.80
2024-02-13T13:05:05.170Z,12.32
2024-02-13T13:10:15.754Z,12.34
2024-02-13T13:15:19.958Z,12.40
2024-02-13T13:20:32.176Z,11.84
2024-02-13T13:25:36.374Z,11.60
2024-02-13T13:30:36.991Z,11.61
2024-02-13T13:35:39.400Z,11.38
2024-02-13T13:40:41.068Z,11.38
2024-02-13T13:45:42.134Z,11.31
2024-02-13T13:50:41.445Z,11.22
2024-02-13T13:55:49.480Z,11.42
2024-02-13T14:00:51.170Z,11.51
2024-02-13T14:05:50.891Z,11.07
2024-02-13T14:10:58.391Z,11.16
2024-02-13T14:16:06.783Z,11.17
2024-02-13T14:21:15.139Z,11.36
2024-02-13T14:26:24.653Z,11.31
2024-02-13T14:31:27.002Z,11.02
2024-02-13T14:36:26.899Z,11.12
2024-02-13T14:41:34.701Z,10.90
2024-02-13T14:46:44.686Z,10.80
2024-02-13T14:51:44.119Z,10.86
2024-02-13T14:56:48.466Z,10.55
2024-02-13T15:01:51.277Z,10.81
2024-02-13T15:06:50.867Z,10.94
2024-02-13T15:12:28.113Z,10.91
2024-02-13T15:17:27.112Z,10.76
2024-02-13T15:22:32.500Z,10.74
2024-02-13T15:27:44.406Z,11.06
2024-02-13T15:32:45.816Z,11.15
2024-02-13T15:38:04.553Z,10.96
2024-02-13T15:43:22.291Z,11.21
2024-02-13T15:48:22.052Z,11.28
2024-02-13T15:53:22.042Z,11.01
2024-02-13T15:58:22.824Z,11.10
2024-02-13T16:03:21.889Z,11.12
2024-02-13T16:08:22.342Z,10.86
2024-02-13T16:13:25.628Z,10.95
2024-02-13T16:18:25.572Z,10.91
2024-02-13T16:23:24.647Z,10.91
2024-02-13T16:28:25.839Z,11.02
2024-02-13T16:33:25.049Z,10.85
2024-02-13T16:38:24.347Z,10.64
2024-02-13T16:43:27.852Z,10.74
2024-02-13T16:48:33.043Z,10.46
2024-02-13T16:53:35.698Z,10.37
2024-02-13T16:58:36.102Z,10.33
2024-02-13T17:03:35.254Z,10.43
2024-02-13T17:08:36.010Z,10.42
2024-02-13T17:13:36.540Z,10.44
2024-02-13T17:18:35.803Z,10.44
2024-02-13T17:23:37.090Z,10.39
2024-02-13T17:28:39.791Z,10.37
2024-02-13T17:33:38.876Z,10.44
2024-02-13T17:38:40.658Z,10.16
2024-02-13T17:43:41.102Z,10.29
2024-02-13T17:48:40.467Z,10.25
2024-02-13T17:53:39.388Z,10.33
2024-02-13T17:58:38.855Z,10.31
2024-02-13T18:03:39.566Z,10.44
2024-02-13T18:08:38.573Z,10.23
2024-02-13T18:13:37.696Z,10.20
2024-02-13T18:18:36.714Z,10.26
2024-02-13T18:23:37.068Z,10.35
2024-02-13T18:28:35.943Z,10.29
2024-02-13T18:33:35.232Z,10.23
2024-02-13T18:38:34.538Z,10.47
2024-02-13T18:43:38.911Z,10.36
2024-02-13T18:48:39.021Z,10.40
2024-02-13T18:53:37.958Z,10.42
2024-02-13T18:58:40.080Z,10.69
2024-02-13T19:03:39.236Z,10.62
2024-02-13T19:08:38.233Z,10.48
2024-02-13T19:13:38.612Z,10.57
2024-02-13T19:18:39.703Z,10.70
2024-02-13T19:23:38.670Z,10.79
2024-02-13T19:28:45.476Z,10.46
2024-02-13T19:33:44.660Z,10.54
2024-02-13T19:38:45.722Z,10.62
2024-02-13T19:43:46.047Z,10.76
2024-02-13T19:48:47.349Z,10.79
2024-02-13T19:53:47.626Z,10.78
2024-02-13T19:58:47.889Z,10.83
2024-02-13T20:03:46.796Z,10.95
2024-02-13T20:08:45.822Z,10.94
2024-02-13T20:13:45.285Z,10.96
2024-02-13T20:18:45.952Z,11.02
2024-02-13T20:23:47.112Z,11.15
2024-02-13T20:28:46.109Z,11.08
2024-02-13T20:33:46.412Z,11.15
2024-02-13T20:38:45.662Z,11.10
2024-02-13T20:43:45.195Z,11.00
2024-02-13T20:48:45.948Z,11.13
2024-02-13T20:53:45.437Z,11.24
2024-02-13T20:58:46.367Z,11.24
2024-02-13T21:03:47.615Z,11.34
2024-02-13T21:08:46.513Z,11.35
2024-02-13T21:13:46.391Z,11.42
2024-02-13T21:18:47.137Z,11.43
2024-02-13T21:23:55.158Z,11.49
2024-02-13T21:28:54.943Z,11.49
2024-02-13T21:33:55.616Z,11.43
2024-02-13T21:38:54.669Z,11.45
2024-02-13T21:43:53.677Z,11.50
2024-02-13T21:48:52.759Z,11.53
2024-02-13T21:53:53.150Z,11.56
2024-02-13T21:58:52.326Z,11.33
2024-02-13T22:03:51.158Z,11.12
2024-02-13T22:08:50.178Z,11.12
2024-02-13T22:13:50.646Z,10.94
2024-02-13T22:18:49.615Z,10.79
2024-02-13T22:23:48.485Z,10.83
2024-02-13T22:28:47.351Z,10.86
2024-02-13T22:33:49.602Z,10.82
2024-02-13T22:38:48.602Z,10.63
2024-02-13T22:43:47.687Z,10.61
2024-02-13T22:48:47.978Z,10.68
2024-02-13T22:53:47.068Z,10.67
2024-02-13T22:58:46.059Z,10.73
2024-02-13T23:03:50.995Z,10.61
2024-02-13T23:08:50.095Z,10.54
2024-02-13T23:13:51.255Z,10.55
2024-02-13T23:18:55.577Z,10.48
2024-02-13T23:23:55.007Z,10.11
2024-02-13T23:28:57.118Z,10.02
2024-02-13T23:33:58.190Z,10.09
2024-02-13T23:38:57.541Z,9.76
2024-02-13T23:43:56.358Z,9.93
2024-02-13T23:48:55.827Z,9.82
2024-02-13T23:53:56.422Z,9.80
2024-02-13T23:58:55.244Z,9.80
